Aérodrome :
LOGIN :

S'inscrire | Disclaimer

   EN    FR    IT 

 










Légende :    VFR   VFR Marginal   IFR   IFR Intensif   IFR Très Intensif
Visi : 
Plafond : 
>= 8 km
>= 3000ft
5 à 8 km
1000 à 3000 ft
1500m à 5 km
500 à 1000 ft
800 à 1500m
200 à 500 ft
< 800m
< 200 ft
Symboles :   Orages  Brouillard  Fortes neiges  Fortes précipitations  Vent > 20 kt
SIGMETs :   Divers  Orages  Givrage  Turbulence  Onde Orograph.  Cendres Volcan.






- Altitude de l'aérodrome : -13 ft
- Code IATA : LEY


EHLE - Lelystad

DERNIER METAR :
  • 030155Z AUTO 33003KT 9999 NSC 06/05 Q1011

METARs EXPIRÉS :
  • 030125Z AUTO 35004KT 9999 NSC 06/05 Q1010
  • 030055Z AUTO 31005KT 9999 NSC 07/06 Q1010
  • 022325Z AUTO 27006KT 9000 NCD 07/06 Q1010

TAF TAF EHLE
Valide du 03 à 00h jusqu'au 04 à 06h UTC


022306Z 0300/0406 29005KT 9999 BKN045
PROB30
TEMPO 0306/0314 7000 -SHRA SCT020TCU BKN025
BECMG 0308/0311 29014KT
BECMG 0317/0320 23005KT
BECMG 0322/0401 19005KT



MET'MAP, la Météo Aéronautique d'un coup d'oeil ! - Copyright ORBIFLY Décembre 2007 - Disclaimer

ORBIFLY MET'MAP TEAM :

Programmation & Développement : Alexandra Zaïnal
Sur une idée originale de : Baudouin d'Aumeries
Assistance à la programmation : Marc-Olivier Méhu
Soutien technique & logistique : Manuel Goepfert

Contact : metmap@orbifly.com




SOURCES & CREDITS :

   NOAA